Joy — V2EI9 — position and weather

sailwx.info

Track history (hours):
 
Tides and Currents Weather Stations Pressure Air Temp Water Temp Dewpoint Dewpoint Depression Visibility Wind Speed Wind Dir Waves Ship Positions

Joy

Last reported at 2015-May-22 02:32 UTC. Time now 2015-May-23 08:51 UTC.
Position N 40°56' W 008°57'.

Length 105 m; draft 3.9 m.

Type: Cargo ship. MMSI: 305444000.

Date/timePositionNaut miles runAvg speedWind from/ knotsBaromVisibWave heightAir tempDewpointWater temp
2015-May-22 02:32N 40°56' W 008°57'9 8.6
2015-May-22 01:31N 40°47' W 008°58'16 8.2
2015-May-21 23:33N 40°31' W 008°59'9 8.4
2015-May-21 22:32N 40°22' W 009°01'8 8.6
2015-May-21 21:33N 40°15' W 009°06'9 8.6
2015-May-21 20:33N 40°08' W 009°12'8 8.1
2015-May-21 19:33N 40°01' W 009°17'8 7.5
2015-May-21 18:32N 39°54' W 009°22'7 7.5
2015-May-21 17:33N 39°48' W 009°28'7 6.8
2015-May-21 16:33N 39°42' W 009°32'7 7.1
2015-May-21 15:33N 39°36' W 009°37'7 7.3
2015-May-21 14:33N 39°30' W 009°42'7 6.9
2015-May-21 13:33N 39°23' W 009°43'7 7.1
2015-May-21 12:33N 39°16' W 009°43'7 6.7
2015-May-21 11:33N 39°09' W 009°43'7 6.7
2015-May-21 10:33N 39°03' W 009°43'7 6.7
2015-May-21 09:33N 38°56' W 009°42'7 6.9
2015-May-21 08:33N 38°49' W 009°42'6 6.5
2015-May-21 07:33N 38°43' W 009°42'6 5.7
2015-May-21 06:33N 38°39' W 009°36'9 9.0
2015-May-21 05:33N 38°41' W 009°24'0 0.2
2015-May-21 04:31N 38°40' W 009°24'0 0.0
2015-May-21 03:13N 38°40' W 009°24'0 0.0
2015-May-21 02:13N 38°40' W 009°24'0 0.0
2015-May-21 01:31N 38°40' W 009°24'0 0.0
2015-May-21 00:31N 38°40' W 009°24'0 0.0
2015-May-20 23:07N 38°40' W 009°24'0 0.0
2015-May-20 20:28N 38°41' W 009°24'0 0.0
2015-May-20 19:22N 38°40' W 009°24'0 0.0
2015-May-20 17:25N 38°40' W 009°24'0 0.0
2015-May-20 16:31N 38°40' W 009°24'0 0.0
2015-May-20 15:31N 38°41' W 009°24'0 0.0
2015-May-20 14:31N 38°40' W 009°24'0 0.0
2015-May-20 13:31N 38°40' W 009°24'0 0.0
2015-May-20 11:31N 38°40' W 009°24'0 0.0
2015-May-20 10:25N 38°40' W 009°24'0 0.0
2015-May-20 09:28N 38°40' W 009°24'0 0.0
2015-May-20 08:13N 38°40' W 009°24'0 0.0
2015-May-20 06:07N 38°40' W 009°24'0 0.0
2015-May-20 05:25N 38°40' W 009°24'0 0.0
2015-May-20 04:25N 38°40' W 009°24'0 0.0
2015-May-20 03:25N 38°40' W 009°24'0 0.0
2015-May-20 02:22N 38°40' W 009°24'0 0.0
2015-May-20 01:31N 38°40' W 009°24'0 0.0
2015-May-20 00:28N 38°40' W 009°24'0 0.0
2015-May-19 23:16N 38°40' W 009°24'0 0.0
2015-May-19 22:13N 38°40' W 009°24'0 0.0
2015-May-19 21:31N 38°40' W 009°24'2 1.7
2015-May-19 20:33N 38°39' W 009°24'9 9.2
2015-May-19 19:33N 38°41' W 009°12'6 2.6
2015-May-19 17:26N 38°44' W 009°06'0 0.0
2015-May-19 16:29N 38°44' W 009°06'0 0.0
2015-May-19 15:32N 38°44' W 009°06'0 0.0
2015-May-19 14:32N 38°44' W 009°06'0 0.0
2015-May-19 13:29N 38°44' W 009°06'0 0.0
2015-May-19 12:32N 38°44' W 009°06'0 0.0
2015-May-19 11:31N 38°44' W 009°06'0 0.0
2015-May-19 10:22N 38°44' W 009°06'0 0.0
2015-May-19 09:31N 38°44' W 009°06'0 0.0
2015-May-19 08:13N 38°44' W 009°06'0 0.0
2015-May-19 06:22N 38°44' W 009°06'0 0.0
2015-May-19 02:31N 38°44' W 009°06'0 0.0
2015-May-19 01:28N 38°44' W 009°06'0 0.0
2015-May-18 23:10N 38°44' W 009°06'0 0.0
2015-May-18 22:22N 38°44' W 009°06'0 0.0
2015-May-18 21:31N 38°44' W 009°06'0 0.0
2015-May-18 20:16N 38°44' W 009°06'0 0.0
2015-May-18 19:28N 38°44' W 009°06'1 1.5
2015-May-18 18:33N 38°43' W 009°07'6 5.8
2015-May-18 17:33N 38°41' W 009°14'8 7.9
2015-May-18 16:32N 38°37' W 009°23'3 1.3
2015-May-18 14:10N 38°40' W 009°23'0 0.0
2015-May-18 13:25N 38°40' W 009°23'0 0.0
2015-May-18 12:28N 38°40' W 009°23'0 0.0
2015-May-18 11:22N 38°40' W 009°23'1 1.0
2015-May-18 10:33N 38°40' W 009°24'9 9.3
2015-May-18 09:34N 38°37' W 009°35'1010.0
2015-May-18 08:32N 38°36' W 009°49'9 9.7
2015-May-18 07:33N 38°35' W 010°01'10 8.9
2015-May-18 06:24N 38°45' W 010°05'  
2015-May-15 09:30N 46°05' W 001°51'8 8.1
2015-May-15 08:31N 46°08' W 001°40'14 0.3
2015-May-13 11:19N 45°55' W 001°30'1210.7
2015-May-13 10:14N 45°44' W 001°32'13610.7
2015-May-12 21:31N 43°29' W 001°55'  
Track history (hours):
 
Tides and Currents Weather Stations Pressure Air Temp Water Temp Dewpoint Dewpoint Depression Visibility Wind Speed Wind Dir Waves Ship Positions

Joy

Last reported at 2015-May-22 02:32 UTC. Time now 2015-May-23 08:51 UTC.
Position N 40°56' W 008°57'.

Length 105 m; draft 3.9 m.

Type: Cargo ship. MMSI: 305444000.

Date/timePositionNaut miles runAvg speedWind from/ knotsBaromVisibWave heightAir tempDewpointWater temp
2015-May-22 02:32N 40°56' W 008°57'9 8.6
2015-May-22 01:31N 40°47' W 008°58'16 8.2
2015-May-21 23:33N 40°31' W 008°59'9 8.4
2015-May-21 22:32N 40°22' W 009°01'8 8.6
2015-May-21 21:33N 40°15' W 009°06'9 8.6
2015-May-21 20:33N 40°08' W 009°12'8 8.1
2015-May-21 19:33N 40°01' W 009°17'8 7.5
2015-May-21 18:32N 39°54' W 009°22'7 7.5
2015-May-21 17:33N 39°48' W 009°28'7 6.8
2015-May-21 16:33N 39°42' W 009°32'7 7.1
2015-May-21 15:33N 39°36' W 009°37'7 7.3
2015-May-21 14:33N 39°30' W 009°42'7 6.9
2015-May-21 13:33N 39°23' W 009°43'7 7.1
2015-May-21 12:33N 39°16' W 009°43'7 6.7
2015-May-21 11:33N 39°09' W 009°43'7 6.7
2015-May-21 10:33N 39°03' W 009°43'7 6.7
2015-May-21 09:33N 38°56' W 009°42'7 6.9
2015-May-21 08:33N 38°49' W 009°42'6 6.5
2015-May-21 07:33N 38°43' W 009°42'6 5.7
2015-May-21 06:33N 38°39' W 009°36'9 9.0
2015-May-21 05:33N 38°41' W 009°24'0 0.2
2015-May-21 04:31N 38°40' W 009°24'0 0.0
2015-May-21 03:13N 38°40' W 009°24'0 0.0
2015-May-21 02:13N 38°40' W 009°24'0 0.0
2015-May-21 01:31N 38°40' W 009°24'0 0.0
2015-May-21 00:31N 38°40' W 009°24'0 0.0
2015-May-20 23:07N 38°40' W 009°24'0 0.0
2015-May-20 20:28N 38°41' W 009°24'0 0.0
2015-May-20 19:22N 38°40' W 009°24'0 0.0
2015-May-20 17:25N 38°40' W 009°24'0 0.0
2015-May-20 16:31N 38°40' W 009°24'0 0.0
2015-May-20 15:31N 38°41' W 009°24'0 0.0
2015-May-20 14:31N 38°40' W 009°24'0 0.0
2015-May-20 13:31N 38°40' W 009°24'0 0.0
2015-May-20 11:31N 38°40' W 009°24'0 0.0
2015-May-20 10:25N 38°40' W 009°24'0 0.0
2015-May-20 09:28N 38°40' W 009°24'0 0.0
2015-May-20 08:13N 38°40' W 009°24'0 0.0
2015-May-20 06:07N 38°40' W 009°24'0 0.0
2015-May-20 05:25N 38°40' W 009°24'0 0.0
2015-May-20 04:25N 38°40' W 009°24'0 0.0
2015-May-20 03:25N 38°40' W 009°24'0 0.0
2015-May-20 02:22N 38°40' W 009°24'0 0.0
2015-May-20 01:31N 38°40' W 009°24'0 0.0
2015-May-20 00:28N 38°40' W 009°24'0 0.0
2015-May-19 23:16N 38°40' W 009°24'0 0.0
2015-May-19 22:13N 38°40' W 009°24'0 0.0
2015-May-19 21:31N 38°40' W 009°24'2 1.7
2015-May-19 20:33N 38°39' W 009°24'9 9.2
2015-May-19 19:33N 38°41' W 009°12'6 2.6
2015-May-19 17:26N 38°44' W 009°06'0 0.0
2015-May-19 16:29N 38°44' W 009°06'0 0.0
2015-May-19 15:32N 38°44' W 009°06'0 0.0
2015-May-19 14:32N 38°44' W 009°06'0 0.0
2015-May-19 13:29N 38°44' W 009°06'0 0.0
2015-May-19 12:32N 38°44' W 009°06'0 0.0
2015-May-19 11:31N 38°44' W 009°06'0 0.0
2015-May-19 10:22N 38°44' W 009°06'0 0.0
2015-May-19 09:31N 38°44' W 009°06'0 0.0
2015-May-19 08:13N 38°44' W 009°06'0 0.0
2015-May-19 06:22N 38°44' W 009°06'0 0.0
2015-May-19 02:31N 38°44' W 009°06'0 0.0
2015-May-19 01:28N 38°44' W 009°06'0 0.0
2015-May-18 23:10N 38°44' W 009°06'0 0.0
2015-May-18 22:22N 38°44' W 009°06'0 0.0
2015-May-18 21:31N 38°44' W 009°06'0 0.0
2015-May-18 20:16N 38°44' W 009°06'0 0.0
2015-May-18 19:28N 38°44' W 009°06'1 1.5
2015-May-18 18:33N 38°43' W 009°07'6 5.8
2015-May-18 17:33N 38°41' W 009°14'8 7.9
2015-May-18 16:32N 38°37' W 009°23'3 1.3
2015-May-18 14:10N 38°40' W 009°23'0 0.0
2015-May-18 13:25N 38°40' W 009°23'0 0.0
2015-May-18 12:28N 38°40' W 009°23'0 0.0
2015-May-18 11:22N 38°40' W 009°23'1 1.0
2015-May-18 10:33N 38°40' W 009°24'9 9.3
2015-May-18 09:34N 38°37' W 009°35'1010.0
2015-May-18 08:32N 38°36' W 009°49'9 9.7
2015-May-18 07:33N 38°35' W 010°01'10 8.9
2015-May-18 06:24N 38°45' W 010°05'  
2015-May-15 09:30N 46°05' W 001°51'8 8.1
2015-May-15 08:31N 46°08' W 001°40'14 0.3
2015-May-13 11:19N 45°55' W 001°30'1210.7
2015-May-13 10:14N 45°44' W 001°32'13610.7
2015-May-12 21:31N 43°29' W 001°55'  

Dump ship's entire track history